Aviation Digital Data Service (ADDS)

Output produced by METARs form (0530 UTC 24 September 2020)
found at http://www.aviationweather.gov/metar/data/
 
METAR text: KAMW 240453Z AUTO 18007KT 10SM CLR 16/14 A2993 RMK AO2 SLP127 T01610144
Conditions at: KAMW (AMES , IA, US) observed 0453 UTC 24 September 2020
Temperature: 16.1°C (61°F)
Dewpoint: 14.4°C (58°F) [RH = 90%]
Pressure (altimeter): 29.93 inches Hg (1013.6 mb)
[Sea-level pressure: 1012.7 mb]
Winds: from the S (180 degrees) at 8 MPH (7 knots; 3.6 m/s)
Visibility: 10 or more miles (16+ km)
Ceiling: at least 12,000 feet AGL
Clouds: sky clear below 12,000 feet AGL
Weather: automated observation with no human augmentation;
there may or may not be significant weather present at this time